sensor_id;sensor_type;location;lat;lon;timestamp;temperature;humidity
47336;DHT22;33068;51.990;5.926;2023-08-01T00:00:45;16.30;99.90
47336;DHT22;33068;51.990;5.926;2023-08-01T00:03:12;16.30;99.90
47336;DHT22;33068;51.990;5.926;2023-08-01T00:05:39;16.30;99.90
47336;DHT22;33068;51.990;5.926;2023-08-01T00:08:10;16.30;99.90
47336;DHT22;33068;51.990;5.926;2023-08-01T00:10:38;16.30;99.90
47336;DHT22;33068;51.990;5.926;2023-08-01T00:13:04;16.40;99.90
47336;DHT22;33068;51.990;5.926;2023-08-01T00:15:31;16.30;99.90
47336;DHT22;33068;51.990;5.926;2023-08-01T00:17:57;16.40;99.90
47336;DHT22;33068;51.990;5.926;2023-08-01T00:20:24;16.40;99.90
47336;DHT22;33068;51.990;5.926;2023-08-01T00:22:50;16.30;99.90
47336;DHT22;33068;51.990;5.926;2023-08-01T00:25:18;16.30;99.90
47336;DHT22;33068;51.990;5.926;2023-08-01T00:27:44;16.30;99.90
47336;DHT22;33068;51.990;5.926;2023-08-01T00:30:11;16.30;99.90
47336;DHT22;33068;51.990;5.926;2023-08-01T00:32:38;16.10;99.90
47336;DHT22;33068;51.990;5.926;2023-08-01T00:35:05;16.00;99.90
47336;DHT22;33068;51.990;5.926;2023-08-01T00:37:31;16.00;99.90
47336;DHT22;33068;51.990;5.926;2023-08-01T00:39:58;16.00;99.90
47336;DHT22;33068;51.990;5.926;2023-08-01T00:42:25;15.90;99.90
47336;DHT22;33068;51.990;5.926;2023-08-01T00:44:51;15.90;99.90
47336;DHT22;33068;51.990;5.926;2023-08-01T00:47:19;15.90;99.90
47336;DHT22;33068;51.990;5.926;2023-08-01T00:49:46;15.90;99.90
47336;DHT22;33068;51.990;5.926;2023-08-01T00:52:13;15.80;99.90
47336;DHT22;33068;51.990;5.926;2023-08-01T00:54:40;15.80;99.90
47336;DHT22;33068;51.990;5.926;2023-08-01T00:57:07;15.90;99.90
47336;DHT22;33068;51.990;5.926;2023-08-01T00:59:35;15.80;99.90
47336;DHT22;33068;51.990;5.926;2023-08-01T01:02:01;15.80;99.90
47336;DHT22;33068;51.990;5.926;2023-08-01T01:04:28;15.80;99.90
47336;DHT22;33068;51.990;5.926;2023-08-01T01:07:00;15.60;99.90
47336;DHT22;33068;51.990;5.926;2023-08-01T01:09:28;15.90;99.90
47336;DHT22;33068;51.990;5.926;2023-08-01T01:11:55;15.80;99.90
47336;DHT22;33068;51.990;5.926;2023-08-01T01:14:21;15.90;99.90
47336;DHT22;33068;51.990;5.926;2023-08-01T01:16:48;15.80;99.90
47336;DHT22;33068;51.990;5.926;2023-08-01T01:19:15;15.80;99.90
47336;DHT22;33068;51.990;5.926;2023-08-01T01:21:43;15.80;99.90
47336;DHT22;33068;51.990;5.926;2023-08-01T01:24:11;15.80;99.90
47336;DHT22;33068;51.990;5.926;2023-08-01T01:26:40;15.80;99.90
47336;DHT22;33068;51.990;5.926;2023-08-01T01:29:08;15.80;99.90
47336;DHT22;33068;51.990;5.926;2023-08-01T01:31:36;15.70;99.90
47336;DHT22;33068;51.990;5.926;2023-08-01T01:34:03;15.80;99.90
47336;DHT22;33068;51.990;5.926;2023-08-01T01:36:30;15.70;99.90
47336;DHT22;33068;51.990;5.926;2023-08-01T01:38:57;15.70;99.90
47336;DHT22;33068;51.990;5.926;2023-08-01T01:41:23;15.60;99.90
47336;DHT22;33068;51.990;5.926;2023-08-01T01:43:50;15.70;99.90
47336;DHT22;33068;51.990;5.926;2023-08-01T01:46:16;15.70;99.90
47336;DHT22;33068;51.990;5.926;2023-08-01T01:48:42;15.70;99.90
47336;DHT22;33068;51.990;5.926;2023-08-01T01:51:09;15.70;99.90
47336;DHT22;33068;51.990;5.926;2023-08-01T01:53:35;15.70;99.90
47336;DHT22;33068;51.990;5.926;2023-08-01T01:56:03;15.60;99.90
47336;DHT22;33068;51.990;5.926;2023-08-01T01:58:29;15.60;99.90
47336;DHT22;33068;51.990;5.926;2023-08-01T02:00:56;15.60;99.90
47336;DHT22;33068;51.990;5.926;2023-08-01T02:03:22;15.40;99.90
47336;DHT22;33068;51.990;5.926;2023-08-01T02:05:49;15.10;99.90
47336;DHT22;33068;51.990;5.926;2023-08-01T02:08:15;15.40;99.90
47336;DHT22;33068;51.990;5.926;2023-08-01T02:10:41;15.40;99.90
47336;DHT22;33068;51.990;5.926;2023-08-01T02:13:08;15.40;99.90
47336;DHT22;33068;51.990;5.926;2023-08-01T02:15:35;15.40;99.90
47336;DHT22;33068;51.990;5.926;2023-08-01T02:18:03;15.30;99.90
47336;DHT22;33068;51.990;5.926;2023-08-01T02:20:29;15.30;99.90
47336;DHT22;33068;51.990;5.926;2023-08-01T02:22:56;15.20;99.90
47336;DHT22;33068;51.990;5.926;2023-08-01T02:25:22;15.20;99.90
47336;DHT22;33068;51.990;5.926;2023-08-01T02:27:48;15.10;99.90
47336;DHT22;33068;51.990;5.926;2023-08-01T02:30:16;15.10;99.90
47336;DHT22;33068;51.990;5.926;2023-08-01T02:32:43;14.90;99.90
47336;DHT22;33068;51.990;5.926;2023-08-01T02:35:09;15.00;99.90
47336;DHT22;33068;51.990;5.926;2023-08-01T02:37:35;15.10;99.90
47336;DHT22;33068;51.990;5.926;2023-08-01T02:40:03;15.00;99.90
47336;DHT22;33068;51.990;5.926;2023-08-01T02:42:33;14.70;99.90
47336;DHT22;33068;51.990;5.926;2023-08-01T02:44:59;14.90;99.90
47336;DHT22;33068;51.990;5.926;2023-08-01T02:47:26;14.90;99.90
47336;DHT22;33068;51.990;5.926;2023-08-01T02:49:52;15.10;99.90
47336;DHT22;33068;51.990;5.926;2023-08-01T02:52:19;14.90;99.90
47336;DHT22;33068;51.990;5.926;2023-08-01T02:54:45;14.90;99.90
47336;DHT22;33068;51.990;5.926;2023-08-01T02:57:12;14.90;99.90
47336;DHT22;33068;51.990;5.926;2023-08-01T02:59:38;14.80;99.90
47336;DHT22;33068;51.990;5.926;2023-08-01T03:02:05;14.80;99.90
47336;DHT22;33068;51.990;5.926;2023-08-01T03:04:32;14.80;99.90
47336;DHT22;33068;51.990;5.926;2023-08-01T03:06:58;14.90;99.90
47336;DHT22;33068;51.990;5.926;2023-08-01T03:09:26;14.90;99.90
47336;DHT22;33068;51.990;5.926;2023-08-01T03:11:52;15.00;99.90
47336;DHT22;33068;51.990;5.926;2023-08-01T03:14:19;15.00;99.90
47336;DHT22;33068;51.990;5.926;2023-08-01T03:16:45;15.00;99.90
47336;DHT22;33068;51.990;5.926;2023-08-01T03:19:12;15.00;99.90
47336;DHT22;33068;51.990;5.926;2023-08-01T03:21:40;15.00;99.90
47336;DHT22;33068;51.990;5.926;2023-08-01T03:24:06;15.00;99.90
47336;DHT22;33068;51.990;5.926;2023-08-01T03:26:34;15.10;99.90
47336;DHT22;33068;51.990;5.926;2023-08-01T03:29:00;15.10;99.90
47336;DHT22;33068;51.990;5.926;2023-08-01T03:31:27;15.10;99.90
47336;DHT22;33068;51.990;5.926;2023-08-01T03:33:54;15.10;99.90
47336;DHT22;33068;51.990;5.926;2023-08-01T03:36:20;15.10;99.90
47336;DHT22;33068;51.990;5.926;2023-08-01T03:38:48;15.10;99.90
47336;DHT22;33068;51.990;5.926;2023-08-01T03:41:14;15.20;99.90
47336;DHT22;33068;51.990;5.926;2023-08-01T03:43:40;15.20;99.90
47336;DHT22;33068;51.990;5.926;2023-08-01T03:46:07;15.50;99.90
47336;DHT22;33068;51.990;5.926;2023-08-01T03:48:34;15.30;99.90
47336;DHT22;33068;51.990;5.926;2023-08-01T03:51:00;15.30;99.90
47336;DHT22;33068;51.990;5.926;2023-08-01T03:53:29;15.30;99.90
47336;DHT22;33068;51.990;5.926;2023-08-01T03:55:56;15.40;99.90
47336;DHT22;33068;51.990;5.926;2023-08-01T03:58:22;15.40;99.90
47336;DHT22;33068;51.990;5.926;2023-08-01T04:00:49;15.40;99.90
47336;DHT22;33068;51.990;5.926;2023-08-01T04:03:15;15.40;99.90
47336;DHT22;33068;51.990;5.926;2023-08-01T04:05:43;15.50;99.90
47336;DHT22;33068;51.990;5.926;2023-08-01T04:08:10;15.10;99.90
47336;DHT22;33068;51.990;5.926;2023-08-01T04:10:36;15.40;99.90
47336;DHT22;33068;51.990;5.926;2023-08-01T04:13:03;15.50;99.90
47336;DHT22;33068;51.990;5.926;2023-08-01T04:15:29;15.60;99.90
47336;DHT22;33068;51.990;5.926;2023-08-01T04:17:56;15.50;99.90
47336;DHT22;33068;51.990;5.926;2023-08-01T04:20:22;15.50;99.90
47336;DHT22;33068;51.990;5.926;2023-08-01T04:22:49;15.60;99.90
47336;DHT22;33068;51.990;5.926;2023-08-01T04:25:15;15.50;99.90
47336;DHT22;33068;51.990;5.926;2023-08-01T04:27:42;15.60;99.90
47336;DHT22;33068;51.990;5.926;2023-08-01T04:30:10;15.60;99.90
47336;DHT22;33068;51.990;5.926;2023-08-01T04:32:37;15.60;99.90
47336;DHT22;33068;51.990;5.926;2023-08-01T04:35:04;15.60;99.90
47336;DHT22;33068;51.990;5.926;2023-08-01T04:37:30;15.60;99.90
47336;DHT22;33068;51.990;5.926;2023-08-01T04:39:57;15.60;99.90
47336;DHT22;33068;51.990;5.926;2023-08-01T04:42:23;15.60;99.90
47336;DHT22;33068;51.990;5.926;2023-08-01T04:44:49;15.60;99.90
47336;DHT22;33068;51.990;5.926;2023-08-01T04:47:20;15.60;99.90
47336;DHT22;33068;51.990;5.926;2023-08-01T04:49:47;15.60;99.90
47336;DHT22;33068;51.990;5.926;2023-08-01T04:52:13;15.60;99.90
47336;DHT22;33068;51.990;5.926;2023-08-01T04:54:40;15.60;99.90
47336;DHT22;33068;51.990;5.926;2023-08-01T04:57:06;15.60;99.90
47336;DHT22;33068;51.990;5.926;2023-08-01T04:59:33;15.60;99.90
47336;DHT22;33068;51.990;5.926;2023-08-01T05:01:59;15.90;99.90
47336;DHT22;33068;51.990;5.926;2023-08-01T05:04:26;15.60;99.90
47336;DHT22;33068;51.990;5.926;2023-08-01T05:06:53;15.70;99.90
47336;DHT22;33068;51.990;5.926;2023-08-01T05:09:19;15.60;99.90
47336;DHT22;33068;51.990;5.926;2023-08-01T05:11:45;15.70;99.90
47336;DHT22;33068;51.990;5.926;2023-08-01T05:14:12;15.70;99.90
47336;DHT22;33068;51.990;5.926;2023-08-01T05:16:38;15.60;99.90
47336;DHT22;33068;51.990;5.926;2023-08-01T05:19:05;15.70;99.90
47336;DHT22;33068;51.990;5.926;2023-08-01T05:21:32;15.70;99.90
47336;DHT22;33068;51.990;5.926;2023-08-01T05:23:58;15.70;99.90
47336;DHT22;33068;51.990;5.926;2023-08-01T05:26:24;15.70;99.90
47336;DHT22;33068;51.990;5.926;2023-08-01T05:28:51;15.80;99.90
47336;DHT22;33068;51.990;5.926;2023-08-01T05:31:17;15.80;99.90
47336;DHT22;33068;51.990;5.926;2023-08-01T05:33:44;15.90;99.90
47336;DHT22;33068;51.990;5.926;2023-08-01T05:36:10;15.60;99.90
47336;DHT22;33068;51.990;5.926;2023-08-01T05:38:37;15.90;99.90
47336;DHT22;33068;51.990;5.926;2023-08-01T05:41:04;15.90;99.90
47336;DHT22;33068;51.990;5.926;2023-08-01T05:43:30;16.00;99.90
47336;DHT22;33068;51.990;5.926;2023-08-01T05:45:56;16.00;99.90
47336;DHT22;33068;51.990;5.926;2023-08-01T05:48:23;16.10;99.90
47336;DHT22;33068;51.990;5.926;2023-08-01T05:50:49;16.10;99.90
47336;DHT22;33068;51.990;5.926;2023-08-01T05:53:16;16.10;99.90
47336;DHT22;33068;51.990;5.926;2023-08-01T05:55:43;16.10;99.90
47336;DHT22;33068;51.990;5.926;2023-08-01T05:58:10;16.10;99.90
47336;DHT22;33068;51.990;5.926;2023-08-01T06:00:36;16.20;99.90
47336;DHT22;33068;51.990;5.926;2023-08-01T06:03:03;16.30;99.90
47336;DHT22;33068;51.990;5.926;2023-08-01T06:05:30;16.40;99.90
47336;DHT22;33068;51.990;5.926;2023-08-01T06:07:56;16.20;99.90
47336;DHT22;33068;51.990;5.926;2023-08-01T06:10:22;16.50;99.90
47336;DHT22;33068;51.990;5.926;2023-08-01T06:12:50;16.50;99.90
47336;DHT22;33068;51.990;5.926;2023-08-01T06:15:16;16.40;99.90
47336;DHT22;33068;51.990;5.926;2023-08-01T06:17:42;16.40;99.90
47336;DHT22;33068;51.990;5.926;2023-08-01T06:20:10;16.40;99.90
47336;DHT22;33068;51.990;5.926;2023-08-01T06:22:37;16.40;99.90
47336;DHT22;33068;51.990;5.926;2023-08-01T06:25:05;15.90;99.90
47336;DHT22;33068;51.990;5.926;2023-08-01T06:27:31;16.30;99.90
47336;DHT22;33068;51.990;5.926;2023-08-01T06:29:58;16.40;99.90
47336;DHT22;33068;51.990;5.926;2023-08-01T06:32:25;16.40;99.90
47336;DHT22;33068;51.990;5.926;2023-08-01T06:34:51;16.40;99.90
47336;DHT22;33068;51.990;5.926;2023-08-01T06:37:18;16.20;99.90
47336;DHT22;33068;51.990;5.926;2023-08-01T06:39:44;16.50;99.90
47336;DHT22;33068;51.990;5.926;2023-08-01T06:42:11;16.50;99.90
47336;DHT22;33068;51.990;5.926;2023-08-01T06:44:37;16.50;99.90
47336;DHT22;33068;51.990;5.926;2023-08-01T06:47:05;16.60;99.90
47336;DHT22;33068;51.990;5.926;2023-08-01T06:49:31;16.70;99.90
47336;DHT22;33068;51.990;5.926;2023-08-01T06:51:58;16.80;99.90
47336;DHT22;33068;51.990;5.926;2023-08-01T06:54:24;16.80;99.90
47336;DHT22;33068;51.990;5.926;2023-08-01T06:56:51;17.00;99.90
47336;DHT22;33068;51.990;5.926;2023-08-01T06:59:17;16.90;99.90
47336;DHT22;33068;51.990;5.926;2023-08-01T07:01:44;16.90;99.90
47336;DHT22;33068;51.990;5.926;2023-08-01T07:04:11;16.90;99.90
47336;DHT22;33068;51.990;5.926;2023-08-01T07:06:38;17.10;99.90
47336;DHT22;33068;51.990;5.926;2023-08-01T07:09:04;17.10;99.90
47336;DHT22;33068;51.990;5.926;2023-08-01T07:11:31;17.10;99.90
47336;DHT22;33068;51.990;5.926;2023-08-01T07:13:57;17.10;99.90
47336;DHT22;33068;51.990;5.926;2023-08-01T07:16:24;17.10;99.90
47336;DHT22;33068;51.990;5.926;2023-08-01T07:18:51;17.20;99.90
47336;DHT22;33068;51.990;5.926;2023-08-01T07:21:18;17.20;99.90
47336;DHT22;33068;51.990;5.926;2023-08-01T07:23:44;17.40;99.90
47336;DHT22;33068;51.990;5.926;2023-08-01T07:26:11;17.40;99.90
47336;DHT22;33068;51.990;5.926;2023-08-01T07:28:38;17.50;99.90
47336;DHT22;33068;51.990;5.926;2023-08-01T07:31:06;17.60;99.90
47336;DHT22;33068;51.990;5.926;2023-08-01T07:33:33;17.30;99.90
47336;DHT22;33068;51.990;5.926;2023-08-01T07:36:00;17.50;99.90
47336;DHT22;33068;51.990;5.926;2023-08-01T07:38:28;17.60;99.90
47336;DHT22;33068;51.990;5.926;2023-08-01T07:40:55;17.80;99.90
47336;DHT22;33068;51.990;5.926;2023-08-01T07:43:21;17.80;99.90
47336;DHT22;33068;51.990;5.926;2023-08-01T07:45:49;17.80;99.90
47336;DHT22;33068;51.990;5.926;2023-08-01T07:48:16;17.80;99.90
47336;DHT22;33068;51.990;5.926;2023-08-01T07:50:42;18.00;99.90
47336;DHT22;33068;51.990;5.926;2023-08-01T07:53:09;18.10;99.90
47336;DHT22;33068;51.990;5.926;2023-08-01T07:55:36;18.10;99.90
47336;DHT22;33068;51.990;5.926;2023-08-01T07:58:03;18.20;99.90
47336;DHT22;33068;51.990;5.926;2023-08-01T08:00:29;17.90;99.90
47336;DHT22;33068;51.990;5.926;2023-08-01T08:02:56;18.90;99.90
47336;DHT22;33068;51.990;5.926;2023-08-01T08:05:22;18.90;99.90
47336;DHT22;33068;51.990;5.926;2023-08-01T08:07:48;19.00;99.90
47336;DHT22;33068;51.990;5.926;2023-08-01T08:10:15;18.90;99.90
47336;DHT22;33068;51.990;5.926;2023-08-01T08:12:42;18.60;99.90
47336;DHT22;33068;51.990;5.926;2023-08-01T08:15:09;18.90;99.90
47336;DHT22;33068;51.990;5.926;2023-08-01T08:17:36;18.90;99.90
47336;DHT22;33068;51.990;5.926;2023-08-01T08:20:03;19.00;99.90
47336;DHT22;33068;51.990;5.926;2023-08-01T08:22:29;18.70;99.90
47336;DHT22;33068;51.990;5.926;2023-08-01T08:24:56;18.40;99.90
47336;DHT22;33068;51.990;5.926;2023-08-01T08:27:23;17.90;99.90
47336;DHT22;33068;51.990;5.926;2023-08-01T08:29:50;17.40;99.90
47336;DHT22;33068;51.990;5.926;2023-08-01T08:32:17;17.10;99.90
47336;DHT22;33068;51.990;5.926;2023-08-01T08:34:43;17.00;99.90
47336;DHT22;33068;51.990;5.926;2023-08-01T08:37:10;17.00;99.90
47336;DHT22;33068;51.990;5.926;2023-08-01T08:39:36;17.80;99.90
47336;DHT22;33068;51.990;5.926;2023-08-01T08:42:03;18.90;99.90
47336;DHT22;33068;51.990;5.926;2023-08-01T08:44:37;19.20;99.90
47336;DHT22;33068;51.990;5.926;2023-08-01T08:47:10;19.50;99.90
47336;DHT22;33068;51.990;5.926;2023-08-01T08:49:38;19.50;99.90
47336;DHT22;33068;51.990;5.926;2023-08-01T08:52:06;19.50;99.90
47336;DHT22;33068;51.990;5.926;2023-08-01T08:54:33;20.00;99.90
47336;DHT22;33068;51.990;5.926;2023-08-01T08:57:03;20.40;99.90
47336;DHT22;33068;51.990;5.926;2023-08-01T08:59:30;20.70;99.90
47336;DHT22;33068;51.990;5.926;2023-08-01T09:01:57;20.30;99.90
47336;DHT22;33068;51.990;5.926;2023-08-01T09:04:27;20.60;99.90
47336;DHT22;33068;51.990;5.926;2023-08-01T09:06:57;20.90;99.90
47336;DHT22;33068;51.990;5.926;2023-08-01T09:09:24;20.60;99.90
47336;DHT22;33068;51.990;5.926;2023-08-01T09:11:52;20.20;99.90
47336;DHT22;33068;51.990;5.926;2023-08-01T09:14:20;20.30;99.90
47336;DHT22;33068;51.990;5.926;2023-08-01T09:16:46;19.90;99.90
47336;DHT22;33068;51.990;5.926;2023-08-01T09:19:17;20.00;99.90
47336;DHT22;33068;51.990;5.926;2023-08-01T09:21:44;20.20;99.90
47336;DHT22;33068;51.990;5.926;2023-08-01T09:24:12;20.70;99.90
47336;DHT22;33068;51.990;5.926;2023-08-01T09:26:39;20.70;99.90
47336;DHT22;33068;51.990;5.926;2023-08-01T09:29:06;20.70;99.90
47336;DHT22;33068;51.990;5.926;2023-08-01T09:31:35;20.90;99.90
47336;DHT22;33068;51.990;5.926;2023-08-01T09:34:03;20.80;99.90
47336;DHT22;33068;51.990;5.926;2023-08-01T09:36:31;20.60;99.90
47336;DHT22;33068;51.990;5.926;2023-08-01T09:38:59;20.20;99.90
47336;DHT22;33068;51.990;5.926;2023-08-01T09:41:26;20.00;99.90
47336;DHT22;33068;51.990;5.926;2023-08-01T09:43:53;19.70;99.90
47336;DHT22;33068;51.990;5.926;2023-08-01T09:46:19;19.60;99.90
47336;DHT22;33068;51.990;5.926;2023-08-01T09:48:48;19.70;99.90
47336;DHT22;33068;51.990;5.926;2023-08-01T09:51:16;19.70;99.90
47336;DHT22;33068;51.990;5.926;2023-08-01T09:53:48;19.70;99.90
47336;DHT22;33068;51.990;5.926;2023-08-01T09:56:16;19.60;99.90
47336;DHT22;33068;51.990;5.926;2023-08-01T09:58:45;19.70;99.90
47336;DHT22;33068;51.990;5.926;2023-08-01T10:01:13;19.90;99.90
47336;DHT22;33068;51.990;5.926;2023-08-01T10:03:45;20.10;99.90
47336;DHT22;33068;51.990;5.926;2023-08-01T10:06:14;20.20;99.90
47336;DHT22;33068;51.990;5.926;2023-08-01T10:08:43;20.40;99.90
47336;DHT22;33068;51.990;5.926;2023-08-01T10:11:12;20.70;99.90
47336;DHT22;33068;51.990;5.926;2023-08-01T10:13:39;20.70;99.90
47336;DHT22;33068;51.990;5.926;2023-08-01T10:16:08;20.30;99.90
47336;DHT22;33068;51.990;5.926;2023-08-01T10:18:34;20.70;99.90
47336;DHT22;33068;51.990;5.926;2023-08-01T10:21:03;21.30;99.90
47336;DHT22;33068;51.990;5.926;2023-08-01T10:23:30;21.80;99.90
47336;DHT22;33068;51.990;5.926;2023-08-01T10:25:59;22.00;99.90
47336;DHT22;33068;51.990;5.926;2023-08-01T10:28:32;21.90;99.90
47336;DHT22;33068;51.990;5.926;2023-08-01T10:31:11;22.10;99.90
47336;DHT22;33068;51.990;5.926;2023-08-01T10:33:38;21.70;99.90
47336;DHT22;33068;51.990;5.926;2023-08-01T10:36:15;21.90;99.90
47336;DHT22;33068;51.990;5.926;2023-08-01T10:38:50;21.90;99.90
47336;DHT22;33068;51.990;5.926;2023-08-01T10:41:21;22.00;99.90
47336;DHT22;33068;51.990;5.926;2023-08-01T10:43:48;22.10;99.90
47336;DHT22;33068;51.990;5.926;2023-08-01T10:46:15;22.40;99.90
47336;DHT22;33068;51.990;5.926;2023-08-01T10:48:51;22.40;99.90
47336;DHT22;33068;51.990;5.926;2023-08-01T10:51:18;22.10;99.90
47336;DHT22;33068;51.990;5.926;2023-08-01T10:53:46;22.60;99.90
47336;DHT22;33068;51.990;5.926;2023-08-01T10:56:19;22.60;99.90
47336;DHT22;33068;51.990;5.926;2023-08-01T10:58:47;22.40;99.90
47336;DHT22;33068;51.990;5.926;2023-08-01T11:01:15;22.10;99.90
47336;DHT22;33068;51.990;5.926;2023-08-01T11:03:41;21.30;99.90
47336;DHT22;33068;51.990;5.926;2023-08-01T11:06:08;21.50;99.90
47336;DHT22;33068;51.990;5.926;2023-08-01T11:08:35;21.40;99.90
47336;DHT22;33068;51.990;5.926;2023-08-01T11:11:04;21.50;99.90
47336;DHT22;33068;51.990;5.926;2023-08-01T11:13:30;22.30;99.90
47336;DHT22;33068;51.990;5.926;2023-08-01T11:15:57;22.40;99.90
47336;DHT22;33068;51.990;5.926;2023-08-01T11:18:24;22.10;99.90
47336;DHT22;33068;51.990;5.926;2023-08-01T11:20:51;21.70;99.90
47336;DHT22;33068;51.990;5.926;2023-08-01T11:23:17;22.00;99.90
47336;DHT22;33068;51.990;5.926;2023-08-01T11:25:44;22.10;99.90
47336;DHT22;33068;51.990;5.926;2023-08-01T11:28:16;22.30;99.90
47336;DHT22;33068;51.990;5.926;2023-08-01T11:30:43;22.30;99.90
47336;DHT22;33068;51.990;5.926;2023-08-01T11:33:15;22.40;99.90
47336;DHT22;33068;51.990;5.926;2023-08-01T11:35:42;22.90;99.90
47336;DHT22;33068;51.990;5.926;2023-08-01T11:38:09;23.00;99.90
47336;DHT22;33068;51.990;5.926;2023-08-01T11:40:35;23.50;99.90
47336;DHT22;33068;51.990;5.926;2023-08-01T11:43:03;23.20;99.90
47336;DHT22;33068;51.990;5.926;2023-08-01T11:45:29;23.10;99.90
47336;DHT22;33068;51.990;5.926;2023-08-01T11:47:56;22.80;99.90
47336;DHT22;33068;51.990;5.926;2023-08-01T11:50:24;22.80;99.90
47336;DHT22;33068;51.990;5.926;2023-08-01T11:52:51;23.00;99.90
47336;DHT22;33068;51.990;5.926;2023-08-01T11:55:19;23.30;99.90
47336;DHT22;33068;51.990;5.926;2023-08-01T11:57:52;23.10;99.90
47336;DHT22;33068;51.990;5.926;2023-08-01T12:00:21;23.00;99.90
47336;DHT22;33068;51.990;5.926;2023-08-01T12:02:50;22.80;99.90
47336;DHT22;33068;51.990;5.926;2023-08-01T12:05:22;22.40;99.90
47336;DHT22;33068;51.990;5.926;2023-08-01T12:07:49;22.30;99.90
47336;DHT22;33068;51.990;5.926;2023-08-01T12:10:16;22.30;99.90
47336;DHT22;33068;51.990;5.926;2023-08-01T12:12:45;22.80;99.90
47336;DHT22;33068;51.990;5.926;2023-08-01T12:15:12;22.90;99.90
47336;DHT22;33068;51.990;5.926;2023-08-01T12:17:39;22.40;99.90
47336;DHT22;33068;51.990;5.926;2023-08-01T12:20:07;21.90;99.90
47336;DHT22;33068;51.990;5.926;2023-08-01T12:22:33;21.70;99.90
47336;DHT22;33068;51.990;5.926;2023-08-01T12:25:00;21.30;99.90
47336;DHT22;33068;51.990;5.926;2023-08-01T12:27:27;21.10;99.90
47336;DHT22;33068;51.990;5.926;2023-08-01T12:29:54;21.00;99.90
47336;DHT22;33068;51.990;5.926;2023-08-01T12:32:20;20.80;99.90
47336;DHT22;33068;51.990;5.926;2023-08-01T12:34:47;20.70;99.90
47336;DHT22;33068;51.990;5.926;2023-08-01T12:37:13;20.60;99.90
47336;DHT22;33068;51.990;5.926;2023-08-01T12:39:39;20.60;99.90
47336;DHT22;33068;51.990;5.926;2023-08-01T12:42:06;20.40;99.90
47336;DHT22;33068;51.990;5.926;2023-08-01T12:44:33;20.50;99.90
47336;DHT22;33068;51.990;5.926;2023-08-01T12:47:00;20.60;99.90
47336;DHT22;33068;51.990;5.926;2023-08-01T12:49:26;20.90;99.90
47336;DHT22;33068;51.990;5.926;2023-08-01T12:51:53;21.00;99.90
47336;DHT22;33068;51.990;5.926;2023-08-01T12:54:19;21.10;99.90
47336;DHT22;33068;51.990;5.926;2023-08-01T12:56:47;21.10;99.90
47336;DHT22;33068;51.990;5.926;2023-08-01T12:59:13;21.10;99.90
47336;DHT22;33068;51.990;5.926;2023-08-01T13:01:40;21.20;99.90
47336;DHT22;33068;51.990;5.926;2023-08-01T13:04:06;21.30;99.90
47336;DHT22;33068;51.990;5.926;2023-08-01T13:06:33;21.50;99.90
47336;DHT22;33068;51.990;5.926;2023-08-01T13:08:59;21.80;99.90
47336;DHT22;33068;51.990;5.926;2023-08-01T13:11:26;22.10;99.90
47336;DHT22;33068;51.990;5.926;2023-08-01T13:13:52;22.10;99.90
47336;DHT22;33068;51.990;5.926;2023-08-01T13:16:19;22.00;99.90
47336;DHT22;33068;51.990;5.926;2023-08-01T13:18:46;21.70;99.90
47336;DHT22;33068;51.990;5.926;2023-08-01T13:21:14;22.00;99.90
47336;DHT22;33068;51.990;5.926;2023-08-01T13:23:41;22.20;99.90
47336;DHT22;33068;51.990;5.926;2023-08-01T13:26:07;22.40;99.90
47336;DHT22;33068;51.990;5.926;2023-08-01T13:28:34;22.50;99.90
47336;DHT22;33068;51.990;5.926;2023-08-01T13:31:00;22.20;99.90
47336;DHT22;33068;51.990;5.926;2023-08-01T13:33:26;22.40;99.90
47336;DHT22;33068;51.990;5.926;2023-08-01T13:35:54;22.80;99.90
47336;DHT22;33068;51.990;5.926;2023-08-01T13:38:21;23.50;99.90
47336;DHT22;33068;51.990;5.926;2023-08-01T13:40:48;23.80;99.90
47336;DHT22;33068;51.990;5.926;2023-08-01T13:43:15;23.70;99.90
47336;DHT22;33068;51.990;5.926;2023-08-01T13:45:41;23.20;99.90
47336;DHT22;33068;51.990;5.926;2023-08-01T13:48:08;22.60;99.90
47336;DHT22;33068;51.990;5.926;2023-08-01T13:50:35;22.50;99.90
47336;DHT22;33068;51.990;5.926;2023-08-01T13:53:02;22.10;99.90
47336;DHT22;33068;51.990;5.926;2023-08-01T13:55:28;21.70;99.90
47336;DHT22;33068;51.990;5.926;2023-08-01T13:57:55;22.00;99.90
47336;DHT22;33068;51.990;5.926;2023-08-01T14:00:21;21.70;99.90
47336;DHT22;33068;51.990;5.926;2023-08-01T14:02:49;21.30;99.90
47336;DHT22;33068;51.990;5.926;2023-08-01T14:05:16;20.80;99.90
47336;DHT22;33068;51.990;5.926;2023-08-01T14:07:43;21.00;99.90
47336;DHT22;33068;51.990;5.926;2023-08-01T14:10:10;21.00;99.90
47336;DHT22;33068;51.990;5.926;2023-08-01T14:12:37;21.10;99.90
47336;DHT22;33068;51.990;5.926;2023-08-01T14:15:04;21.30;99.90
47336;DHT22;33068;51.990;5.926;2023-08-01T14:17:31;21.70;99.90
47336;DHT22;33068;51.990;5.926;2023-08-01T14:19:58;22.00;99.90
47336;DHT22;33068;51.990;5.926;2023-08-01T14:22:24;22.30;99.90
47336;DHT22;33068;51.990;5.926;2023-08-01T14:24:51;22.10;99.90
47336;DHT22;33068;51.990;5.926;2023-08-01T14:27:18;22.40;99.90
47336;DHT22;33068;51.990;5.926;2023-08-01T14:29:45;22.40;99.90
47336;DHT22;33068;51.990;5.926;2023-08-01T14:32:11;22.30;99.90
47336;DHT22;33068;51.990;5.926;2023-08-01T14:34:38;22.10;99.90
47336;DHT22;33068;51.990;5.926;2023-08-01T14:37:04;22.10;99.90
47336;DHT22;33068;51.990;5.926;2023-08-01T14:39:31;22.10;99.90
47336;DHT22;33068;51.990;5.926;2023-08-01T14:41:57;22.20;99.90
47336;DHT22;33068;51.990;5.926;2023-08-01T14:44:26;22.70;99.90
47336;DHT22;33068;51.990;5.926;2023-08-01T14:46:53;22.70;99.90
47336;DHT22;33068;51.990;5.926;2023-08-01T14:49:55;23.00;99.90
47336;DHT22;33068;51.990;5.926;2023-08-01T14:56:20;23.60;99.90
47336;DHT22;33068;51.990;5.926;2023-08-01T14:58:46;23.20;99.90
47336;DHT22;33068;51.990;5.926;2023-08-01T15:01:13;22.40;99.90
47336;DHT22;33068;51.990;5.926;2023-08-01T15:06:33;21.20;99.90
47336;DHT22;33068;51.990;5.926;2023-08-01T15:09:00;21.20;99.90
47336;DHT22;33068;51.990;5.926;2023-08-01T15:11:26;20.90;99.90
47336;DHT22;33068;51.990;5.926;2023-08-01T15:13:53;20.90;99.90
47336;DHT22;33068;51.990;5.926;2023-08-01T15:16:20;20.80;99.90
47336;DHT22;33068;51.990;5.926;2023-08-01T15:18:47;20.80;99.90
47336;DHT22;33068;51.990;5.926;2023-08-01T15:21:14;20.60;99.90
47336;DHT22;33068;51.990;5.926;2023-08-01T15:23:40;20.50;99.90
47336;DHT22;33068;51.990;5.926;2023-08-01T15:26:07;20.50;99.90
47336;DHT22;33068;51.990;5.926;2023-08-01T15:28:33;20.50;99.90
47336;DHT22;33068;51.990;5.926;2023-08-01T15:31:03;20.50;99.90
47336;DHT22;33068;51.990;5.926;2023-08-01T15:33:32;20.70;99.90
47336;DHT22;33068;51.990;5.926;2023-08-01T15:36:00;20.70;99.90